createdAt,value
2023-04-06T00:02:17.001Z,10.88
2023-04-06T00:04:43.423Z,11.48
2023-04-06T00:07:09.864Z,11.85
2023-04-06T00:09:36.708Z,8.82
2023-04-06T00:12:03.228Z,13.20
2023-04-06T00:14:29.700Z,12.63
2023-04-06T00:16:56.836Z,11.48
2023-04-06T00:19:23.385Z,11.68
2023-04-06T00:21:49.899Z,11.10
2023-04-06T00:24:16.556Z,11.00
2023-04-06T00:26:43.335Z,11.15
2023-04-06T00:29:10.257Z,10.57
2023-04-06T00:31:36.887Z,12.65
2023-04-06T00:34:03.560Z,11.00
2023-04-06T00:36:30.892Z,11.55
2023-04-06T00:38:57.307Z,11.27
2023-04-06T00:41:24.559Z,13.27
2023-04-06T00:43:51.037Z,12.07
2023-04-06T00:46:17.654Z,9.88
2023-04-06T00:48:44.351Z,16.02
2023-04-06T00:51:11.281Z,10.43
2023-04-06T00:53:37.725Z,10.48
2023-04-06T00:56:04.378Z,14.25
2023-04-06T00:58:30.944Z,11.75
2023-04-06T01:00:57.886Z,10.88
2023-04-06T01:03:24.459Z,13.82
2023-04-06T01:05:56.585Z,12.55
2023-04-06T01:08:23.280Z,10.82
2023-04-06T01:10:49.980Z,11.55
2023-04-06T01:13:16.782Z,11.32
2023-04-06T01:15:43.572Z,11.02
2023-04-06T01:18:11.655Z,11.13
2023-04-06T01:20:38.256Z,11.13
2023-04-06T01:23:05.278Z,12.40
2023-04-06T01:25:31.768Z,12.43
2023-04-06T01:27:58.517Z,14.80
2023-04-06T01:30:25.075Z,11.77
2023-04-06T01:32:51.851Z,11.30
2023-04-06T01:35:20.232Z,8.30
2023-04-06T01:37:46.668Z,11.57
2023-04-06T01:40:14.806Z,11.88
2023-04-06T01:42:41.358Z,11.20
2023-04-06T01:45:08.613Z,14.27
2023-04-06T01:47:35.135Z,9.55
2023-04-06T01:50:02.244Z,9.07
2023-04-06T01:52:28.666Z,10.38
2023-04-06T01:54:55.244Z,10.88
2023-04-06T01:57:22.417Z,15.70
2023-04-06T01:59:48.812Z,11.35
2023-04-06T02:02:15.468Z,10.38
2023-04-06T02:04:42.281Z,11.93
2023-04-06T02:07:08.726Z,12.80
2023-04-06T02:09:35.743Z,12.80
2023-04-06T02:12:02.747Z,10.85
2023-04-06T02:14:29.271Z,12.70
2023-04-06T02:16:55.780Z,13.27
2023-04-06T02:19:22.158Z,12.07
2023-04-06T02:21:48.818Z,11.75
2023-04-06T02:24:15.456Z,12.38
2023-04-06T02:26:41.856Z,8.52
2023-04-06T02:29:08.624Z,15.52
2023-04-06T02:31:35.342Z,11.63
2023-04-06T02:34:01.793Z,12.77
2023-04-06T02:36:28.169Z,8.93
2023-04-06T02:38:55.226Z,11.88
2023-04-06T02:41:21.679Z,12.02
2023-04-06T02:43:48.107Z,12.13
2023-04-06T02:46:14.567Z,9.82
2023-04-06T02:48:41.554Z,9.80
2023-04-06T02:51:08.044Z,11.00
2023-04-06T02:53:34.882Z,10.77
2023-04-06T02:56:01.599Z,10.70
2023-04-06T02:58:28.014Z,12.57
2023-04-06T03:00:54.708Z,16.30
2023-04-06T03:03:21.555Z,12.60
2023-04-06T03:05:48.516Z,12.85
2023-04-06T03:08:15.197Z,12.23
2023-04-06T03:10:41.995Z,13.32
2023-04-06T03:13:08.388Z,12.52
2023-04-06T03:15:34.845Z,12.40
2023-04-06T03:18:01.330Z,10.38
2023-04-06T03:20:28.147Z,13.05
2023-04-06T03:22:54.870Z,12.30
2023-04-06T03:25:21.232Z,14.27
2023-04-06T03:27:48.051Z,14.70
2023-04-06T03:30:14.653Z,10.45
2023-04-06T03:32:41.495Z,10.60
2023-04-06T03:35:08.246Z,13.00
2023-04-06T03:37:35.020Z,15.35
2023-04-06T03:40:01.583Z,10.40
2023-04-06T03:42:27.971Z,11.27
2023-04-06T03:44:54.661Z,12.35
2023-04-06T03:47:21.327Z,14.57
2023-04-06T03:49:47.757Z,10.88
2023-04-06T03:52:14.141Z,10.00
2023-04-06T03:54:41.040Z,12.07
2023-04-06T03:57:07.683Z,10.27
2023-04-06T03:59:34.663Z,11.55
2023-04-06T04:02:01.161Z,8.68
2023-04-06T04:04:27.616Z,11.10
2023-04-06T04:06:54.241Z,10.73
2023-04-06T04:09:20.631Z,12.27
2023-04-06T04:11:47.474Z,10.55
2023-04-06T04:14:13.866Z,12.18
2023-04-06T04:16:40.793Z,12.82
2023-04-06T04:19:07.507Z,13.63
2023-04-06T04:21:34.469Z,9.55
2023-04-06T04:24:00.849Z,12.50
2023-04-06T04:26:27.277Z,9.40
2023-04-06T04:28:53.709Z,10.38
2023-04-06T04:31:21.337Z,12.27
2023-04-06T04:33:47.770Z,11.30
2023-04-06T04:36:14.332Z,9.63
2023-04-06T04:38:41.148Z,11.05
2023-04-06T04:41:07.518Z,11.60
2023-04-06T04:43:34.396Z,9.40
2023-04-06T04:46:00.777Z,11.43
2023-04-06T04:48:27.250Z,9.90
2023-04-06T04:50:53.980Z,11.25
2023-04-06T04:53:20.601Z,12.23
2023-04-06T04:55:47.383Z,10.95
2023-04-06T04:58:17.468Z,11.02
2023-04-06T05:00:44.820Z,9.85
2023-04-06T05:03:19.370Z,14.23
2023-04-06T05:05:45.960Z,12.07
2023-04-06T05:08:13.439Z,11.52
2023-04-06T05:10:40.667Z,11.35
2023-04-06T05:13:07.047Z,10.77
2023-04-06T05:15:35.897Z,14.15
2023-04-06T05:18:02.419Z,14.35
2023-04-06T05:20:29.123Z,13.63
2023-04-06T05:22:55.503Z,13.90
2023-04-06T05:25:22.374Z,10.88
2023-04-06T05:27:48.812Z,9.98
2023-04-06T05:30:15.725Z,10.70
2023-04-06T05:32:43.565Z,8.73
2023-04-06T05:35:10.591Z,16.30
2023-04-06T05:37:37.192Z,13.80
2023-04-06T05:40:04.484Z,15.13
2023-04-06T05:42:40.866Z,12.32
2023-04-06T05:45:08.072Z,11.05
2023-04-06T05:47:34.750Z,12.98
2023-04-06T05:50:01.212Z,13.20
2023-04-06T05:52:27.916Z,9.88
2023-04-06T05:54:55.093Z,10.13
2023-04-06T05:57:21.837Z,11.88
2023-04-06T05:59:48.543Z,12.57
2023-04-06T06:02:15.220Z,9.75
2023-04-06T06:04:41.800Z,10.98
2023-04-06T06:07:08.888Z,10.27
2023-04-06T06:09:35.259Z,9.18
2023-04-06T06:12:01.702Z,17.20
2023-04-06T06:14:31.413Z,15.93
2023-04-06T06:16:58.181Z,11.10
2023-04-06T06:19:24.583Z,11.35
2023-04-06T06:21:51.468Z,10.52
2023-04-06T06:24:17.918Z,14.15
2023-04-06T06:26:44.790Z,11.43
2023-04-06T06:29:11.461Z,11.23
2023-04-06T06:31:38.186Z,14.00
2023-04-06T06:34:05.053Z,10.55
2023-04-06T06:36:32.574Z,8.32
2023-04-06T06:38:59.341Z,11.77
2023-04-06T06:41:26.991Z,14.85
2023-04-06T06:43:53.439Z,9.63
2023-04-06T06:46:19.907Z,15.18
2023-04-06T06:48:46.581Z,10.07
2023-04-06T06:51:13.133Z,11.88
2023-04-06T06:53:39.540Z,11.27
2023-04-06T06:56:06.222Z,9.20
2023-04-06T06:58:32.656Z,11.40
2023-04-06T07:01:00.050Z,13.00
2023-04-06T07:03:27.027Z,8.95
2023-04-06T07:05:56.614Z,16.65
2023-04-06T07:08:24.893Z,9.95
2023-04-06T07:10:59.357Z,17.67
2023-04-06T07:13:27.988Z,12.65
2023-04-06T07:15:54.981Z,12.18
2023-04-06T07:18:22.136Z,12.10
2023-04-06T07:20:48.644Z,14.13
2023-04-06T07:23:15.209Z,14.05
2023-04-06T07:25:41.780Z,10.60
2023-04-06T07:28:08.615Z,12.88
2023-04-06T07:30:36.979Z,10.82
2023-04-06T07:33:03.780Z,10.95
2023-04-06T07:35:31.160Z,9.82
2023-04-06T07:37:58.273Z,13.07
2023-04-06T07:40:24.784Z,12.57
2023-04-06T07:42:51.393Z,14.90
2023-04-06T07:45:17.863Z,10.30
2023-04-06T07:47:44.256Z,12.68
2023-04-06T07:50:11.351Z,16.98
2023-04-06T07:52:38.671Z,10.95
2023-04-06T07:55:05.876Z,15.23
2023-04-06T07:57:32.265Z,12.88
2023-04-06T07:59:59.162Z,14.02
2023-04-06T08:02:25.698Z,16.50
2023-04-06T08:04:52.513Z,14.25
2023-04-06T08:07:18.974Z,12.40
2023-04-06T08:09:45.526Z,13.50
2023-04-06T08:12:12.394Z,13.88
2023-04-06T08:14:38.783Z,14.25
2023-04-06T08:17:06.487Z,16.05
2023-04-06T08:19:33.292Z,13.45
2023-04-06T08:21:59.710Z,14.85
2023-04-06T08:24:26.581Z,17.85
2023-04-06T08:26:53.939Z,14.10
2023-04-06T08:29:20.836Z,15.35
2023-04-06T08:31:47.221Z,13.07
2023-04-06T08:34:14.579Z,16.33
2023-04-06T08:36:42.134Z,16.27
2023-04-06T08:39:08.750Z,18.50
2023-04-06T08:41:35.770Z,11.55
2023-04-06T08:44:03.533Z,13.13
2023-04-06T08:46:31.542Z,12.10
2023-04-06T08:49:03.068Z,16.25
2023-04-06T08:51:31.533Z,15.73
2023-04-06T08:54:00.500Z,13.82
2023-04-06T08:56:28.928Z,15.20
2023-04-06T08:58:56.879Z,16.23
2023-04-06T09:01:30.465Z,18.42
2023-04-06T09:03:59.502Z,17.95
2023-04-06T09:06:27.846Z,15.27
2023-04-06T09:08:54.513Z,15.27
2023-04-06T09:11:21.304Z,14.55
2023-04-06T09:13:53.750Z,14.70
2023-04-06T09:16:20.803Z,14.63
2023-04-06T09:18:48.486Z,16.25
2023-04-06T09:21:19.274Z,17.38
2023-04-06T09:23:46.537Z,15.40
2023-04-06T09:26:15.007Z,18.15
2023-04-06T09:28:57.915Z,14.68
2023-04-06T09:31:28.848Z,14.85
2023-04-06T09:33:56.940Z,15.65
2023-04-06T09:36:41.218Z,15.93
2023-04-06T09:39:08.546Z,22.02
2023-04-06T09:41:36.684Z,17.02
2023-04-06T09:44:10.408Z,19.20
2023-04-06T09:46:55.151Z,19.70
2023-04-06T09:49:27.664Z,16.35
2023-04-06T09:52:00.734Z,18.35
2023-04-06T09:54:31.052Z,21.50
2023-04-06T09:57:26.331Z,18.88
2023-04-06T10:00:12.025Z,19.63
2023-04-06T10:03:10.431Z,17.33
2023-04-06T10:05:56.125Z,17.25
2023-04-06T10:08:25.146Z,17.60
2023-04-06T10:10:52.687Z,14.35
2023-04-06T10:13:20.244Z,20.88
2023-04-06T10:15:47.251Z,20.38
2023-04-06T10:18:15.218Z,17.98
2023-04-06T10:20:50.443Z,23.50
2023-04-06T10:26:00.867Z,16.55
2023-04-06T10:28:37.140Z,19.95
2023-04-06T10:31:06.962Z,17.60
2023-04-06T10:33:33.642Z,18.88
2023-04-06T10:36:30.709Z,17.58
2023-04-06T10:39:00.002Z,18.98
2023-04-06T10:41:43.867Z,18.02
2023-04-06T10:44:21.499Z,18.63
2023-04-06T10:47:01.388Z,15.43
2023-04-06T10:49:28.196Z,14.52
2023-04-06T10:51:55.992Z,20.60
2023-04-06T10:54:24.825Z,18.20
2023-04-06T10:56:51.362Z,17.77
2023-04-06T10:59:22.480Z,17.15
2023-04-06T11:01:49.890Z,16.98
2023-04-06T11:04:18.994Z,17.10
2023-04-06T11:06:50.757Z,15.50
2023-04-06T11:09:30.888Z,18.75
2023-04-06T11:11:57.855Z,19.58
2023-04-06T11:14:24.504Z,18.25
2023-04-06T11:16:51.294Z,17.58
2023-04-06T11:19:18.432Z,17.85
2023-04-06T11:21:50.646Z,18.80
2023-04-06T11:24:24.623Z,18.75
2023-04-06T11:26:57.522Z,21.30
2023-04-06T11:29:26.514Z,18.10
2023-04-06T11:31:58.653Z,14.50
2023-04-06T11:34:25.998Z,20.23
2023-04-06T11:36:58.031Z,17.70
2023-04-06T11:39:26.568Z,15.77
2023-04-06T11:42:01.345Z,17.58
2023-04-06T11:44:41.263Z,18.33
2023-04-06T11:47:09.843Z,21.38
2023-04-06T11:49:40.721Z,15.82
2023-04-06T11:52:17.879Z,16.80
2023-04-06T11:54:45.423Z,12.63
2023-04-06T11:57:11.860Z,15.48
2023-04-06T11:59:38.357Z,16.10
2023-04-06T12:02:05.404Z,16.58
2023-04-06T12:04:32.616Z,13.07
2023-04-06T12:06:59.343Z,12.40
2023-04-06T12:09:26.032Z,13.25
2023-04-06T12:11:52.831Z,14.18
2023-04-06T12:14:19.315Z,16.50
2023-04-06T12:16:46.239Z,13.20
2023-04-06T12:19:12.710Z,14.40
2023-04-06T12:21:39.569Z,13.50
2023-04-06T12:24:06.400Z,20.50
2023-04-06T12:26:34.454Z,15.68
2023-04-06T12:29:10.110Z,15.82
2023-04-06T12:31:39.183Z,13.07
2023-04-06T12:34:05.972Z,13.18
2023-04-06T12:36:35.509Z,10.88
2023-04-06T12:39:02.266Z,11.98
2023-04-06T12:41:29.780Z,16.95
2023-04-06T12:43:56.626Z,15.15
2023-04-06T12:46:24.657Z,13.00
2023-04-06T12:48:54.524Z,15.98
2023-04-06T12:51:22.574Z,13.13
2023-04-06T12:53:49.107Z,16.20
2023-04-06T12:56:22.099Z,12.98
2023-04-06T12:58:48.539Z,18.25
2023-04-06T13:01:15.330Z,17.42
2023-04-06T13:03:42.885Z,16.00
2023-04-06T13:06:10.353Z,16.17
2023-04-06T13:08:38.950Z,20.20
2023-04-06T13:11:09.315Z,15.95
2023-04-06T13:13:36.201Z,15.80
2023-04-06T13:16:05.652Z,17.45
2023-04-06T13:18:33.264Z,11.23
2023-04-06T13:21:03.465Z,16.55
2023-04-06T13:23:30.183Z,13.57
2023-04-06T13:26:01.615Z,15.80
2023-04-06T13:28:28.709Z,17.52
2023-04-06T13:30:56.201Z,18.20
2023-04-06T13:33:23.138Z,21.75
2023-04-06T13:35:49.518Z,18.75
2023-04-06T13:38:17.343Z,15.88
2023-04-06T13:40:44.883Z,13.25
2023-04-06T13:43:11.720Z,16.85
2023-04-06T13:45:39.225Z,12.20
2023-04-06T13:48:06.817Z,10.90
2023-04-06T13:50:33.999Z,11.75
2023-04-06T13:53:00.602Z,13.45
2023-04-06T13:55:27.020Z,13.95
2023-04-06T13:57:53.675Z,7.63
2023-04-06T14:00:20.329Z,9.88
2023-04-06T14:02:46.801Z,10.57
2023-04-06T14:05:13.415Z,11.82
2023-04-06T14:07:39.791Z,12.13
2023-04-06T14:10:14.717Z,11.90
2023-04-06T14:12:45.583Z,13.40
2023-04-06T14:15:13.309Z,15.40
2023-04-06T14:17:39.779Z,15.13
2023-04-06T14:20:07.829Z,12.88
2023-04-06T14:22:34.217Z,15.35
2023-04-06T14:25:00.835Z,14.18
2023-04-06T14:27:27.500Z,11.63
2023-04-06T14:29:55.018Z,12.95
2023-04-06T14:32:22.307Z,10.27
2023-04-06T14:34:48.795Z,11.65
2023-04-06T14:37:15.895Z,11.25
2023-04-06T14:39:42.318Z,10.18
2023-04-06T14:42:08.717Z,10.95
2023-04-06T14:44:38.016Z,9.65
2023-04-06T14:47:07.242Z,9.45
2023-04-06T14:49:33.829Z,9.80
2023-04-06T14:52:01.338Z,9.95
2023-04-06T14:54:27.753Z,10.93
2023-04-06T14:56:54.524Z,12.00
2023-04-06T14:59:21.272Z,12.10
2023-04-06T15:01:48.344Z,10.32
2023-04-06T15:04:15.150Z,9.70
2023-04-06T15:06:43.786Z,11.73
2023-04-06T15:09:10.493Z,10.85
2023-04-06T15:11:36.844Z,11.75
2023-04-06T15:14:03.268Z,9.48
2023-04-06T15:16:33.145Z,10.15
2023-04-06T15:19:01.348Z,10.73
2023-04-06T15:21:28.182Z,12.80
2023-04-06T15:23:54.984Z,10.07
2023-04-06T15:26:22.243Z,12.70
2023-04-06T15:28:49.057Z,10.35
2023-04-06T15:31:32.955Z,12.30
2023-04-06T15:34:00.771Z,13.38
2023-04-06T15:36:31.025Z,13.85
2023-04-06T15:39:01.565Z,17.35
2023-04-06T15:41:28.713Z,18.25
2023-04-06T15:43:56.114Z,13.60
2023-04-06T15:46:23.195Z,13.52
2023-04-06T15:48:50.076Z,12.55
2023-04-06T15:51:17.532Z,10.65
2023-04-06T15:53:44.601Z,11.40
2023-04-06T15:56:11.055Z,10.25
2023-04-06T15:58:38.147Z,13.13
2023-04-06T16:01:18.734Z,13.10
2023-04-06T16:03:46.789Z,11.65
2023-04-06T16:06:14.017Z,10.98
2023-04-06T16:08:41.037Z,11.63
2023-04-06T16:11:08.369Z,11.65
2023-04-06T16:13:35.711Z,11.93
2023-04-06T16:16:03.980Z,11.73
2023-04-06T16:18:31.415Z,13.05
2023-04-06T16:20:59.964Z,10.30
2023-04-06T16:23:27.127Z,11.45
2023-04-06T16:25:58.046Z,13.88
2023-04-06T16:28:25.616Z,12.05
2023-04-06T16:30:52.861Z,13.15
2023-04-06T16:33:19.849Z,13.93
2023-04-06T16:35:47.332Z,12.45
2023-04-06T16:38:14.533Z,17.80
2023-04-06T16:40:41.097Z,11.85
2023-04-06T16:43:07.760Z,14.13
2023-04-06T16:45:34.208Z,13.68
2023-04-06T16:48:00.718Z,12.77
2023-04-06T16:50:27.682Z,12.98
2023-04-06T16:52:54.072Z,14.73
2023-04-06T16:55:20.551Z,17.67
2023-04-06T16:57:49.100Z,17.08
2023-04-06T17:00:16.577Z,15.30
2023-04-06T17:02:47.298Z,14.20
2023-04-06T17:05:14.535Z,14.82
2023-04-06T17:07:41.119Z,14.80
2023-04-06T17:10:08.518Z,17.30
2023-04-06T17:12:34.936Z,14.40
2023-04-06T17:15:01.520Z,15.98
2023-04-06T17:17:27.892Z,15.88
2023-04-06T17:19:54.371Z,15.77
2023-04-06T17:22:21.390Z,13.18
2023-04-06T17:24:49.351Z,15.82
2023-04-06T17:27:16.611Z,15.32
2023-04-06T17:29:43.179Z,15.05
2023-04-06T17:32:11.890Z,18.63
2023-04-06T17:34:38.944Z,20.08
2023-04-06T17:37:05.788Z,15.68
2023-04-06T17:39:32.426Z,17.52
2023-04-06T17:41:59.844Z,17.75
2023-04-06T17:44:26.686Z,15.38
2023-04-06T17:46:53.625Z,15.43
2023-04-06T17:49:20.402Z,16.27
2023-04-06T17:51:46.991Z,15.75
2023-04-06T17:54:13.353Z,17.45
2023-04-06T17:56:39.853Z,16.48
2023-04-06T17:59:08.320Z,20.77
2023-04-06T18:01:34.873Z,18.65
2023-04-06T18:04:01.498Z,16.25
2023-04-06T18:06:28.021Z,19.75
2023-04-06T18:08:54.920Z,16.80
2023-04-06T18:11:21.623Z,23.50
2023-04-06T18:13:48.644Z,19.55
2023-04-06T18:16:17.105Z,17.88
2023-04-06T18:18:43.606Z,17.25
2023-04-06T18:21:10.220Z,18.30
2023-04-06T18:23:38.010Z,15.80
2023-04-06T18:26:06.153Z,21.00
2023-04-06T18:28:33.287Z,16.30
2023-04-06T18:31:00.228Z,17.50
2023-04-06T18:33:29.804Z,17.15
2023-04-06T18:35:59.872Z,19.35
2023-04-06T18:38:26.372Z,18.17
2023-04-06T18:40:53.190Z,17.23
2023-04-06T18:43:19.829Z,17.02
2023-04-06T18:45:46.580Z,15.82
2023-04-06T18:48:13.672Z,19.77
2023-04-06T18:50:40.518Z,14.68
2023-04-06T18:53:07.016Z,13.95
2023-04-06T18:55:34.109Z,15.32
2023-04-06T18:58:00.819Z,17.85
2023-04-06T19:00:27.889Z,13.77
2023-04-06T19:02:54.528Z,15.27
2023-04-06T19:05:22.162Z,14.60
2023-04-06T19:07:52.210Z,16.00
2023-04-06T19:10:19.292Z,16.23
2023-04-06T19:12:46.659Z,18.27
2023-04-06T19:15:13.387Z,17.90
2023-04-06T19:17:40.418Z,16.35
2023-04-06T19:20:07.737Z,15.55
2023-04-06T19:22:36.228Z,18.75
2023-04-06T19:25:03.961Z,18.50
2023-04-06T19:27:30.682Z,15.52
2023-04-06T19:29:57.568Z,16.67
2023-04-06T19:32:24.172Z,14.30
2023-04-06T19:34:51.350Z,16.58
2023-04-06T19:37:17.985Z,16.85
2023-04-06T19:39:44.353Z,15.68
2023-04-06T19:42:12.153Z,14.25
2023-04-06T19:44:38.488Z,16.20
2023-04-06T19:47:05.210Z,14.50
2023-04-06T19:49:31.603Z,12.50
2023-04-06T19:51:57.980Z,14.38
2023-04-06T19:54:24.675Z,12.48
2023-04-06T19:56:51.532Z,12.32
2023-04-06T19:59:18.043Z,13.98
2023-04-06T20:01:45.437Z,11.93
2023-04-06T20:04:13.002Z,12.57
2023-04-06T20:06:39.752Z,11.82
2023-04-06T20:09:06.564Z,16.25
2023-04-06T20:11:35.488Z,13.00
2023-04-06T20:14:02.131Z,14.57
2023-04-06T20:16:28.620Z,14.35
2023-04-06T20:18:55.280Z,12.80
2023-04-06T20:21:22.217Z,14.55
2023-04-06T20:23:48.622Z,17.60
2023-04-06T20:26:15.991Z,13.52
2023-04-06T20:28:42.461Z,15.50
2023-04-06T20:31:08.831Z,14.38
2023-04-06T20:33:35.801Z,16.42
2023-04-06T20:36:02.753Z,17.88
2023-04-06T20:40:59.999Z,19.23
2023-04-06T20:43:28.633Z,21.15
2023-04-06T20:45:59.258Z,17.65
2023-04-06T20:48:26.299Z,20.45
2023-04-06T20:50:53.038Z,21.92
2023-04-06T20:53:20.938Z,22.15
2023-04-06T20:55:47.805Z,21.35
2023-04-06T20:58:20.470Z,22.40
2023-04-06T21:00:49.775Z,23.70
2023-04-06T21:03:17.569Z,24.63
2023-04-06T21:05:55.652Z,22.40
2023-04-06T21:08:22.470Z,20.45
2023-04-06T21:10:48.932Z,22.10
2023-04-06T21:13:15.689Z,21.33
2023-04-06T21:15:42.640Z,20.85
2023-04-06T21:18:09.610Z,23.60
2023-04-06T21:20:36.921Z,24.05
2023-04-06T21:23:03.488Z,21.90
2023-04-06T21:25:29.833Z,19.85
2023-04-06T21:27:56.249Z,20.80
2023-04-06T21:30:23.444Z,18.83
2023-04-06T21:32:49.823Z,21.98
2023-04-06T21:35:16.361Z,22.58
2023-04-06T21:37:42.800Z,19.08
2023-04-06T21:40:09.752Z,23.75
2023-04-06T21:42:36.100Z,17.83
2023-04-06T21:45:02.694Z,18.23
2023-04-06T21:47:29.425Z,20.25
2023-04-06T21:49:55.796Z,20.63
2023-04-06T21:52:22.168Z,16.15
2023-04-06T21:54:48.905Z,18.23
2023-04-06T21:57:15.242Z,16.58
2023-04-06T21:59:41.608Z,18.45
2023-04-06T22:02:08.138Z,20.30
2023-04-06T22:04:34.613Z,17.85
2023-04-06T22:07:01.196Z,20.23
2023-04-06T22:09:27.900Z,17.77
2023-04-06T22:11:54.704Z,18.05
2023-04-06T22:14:21.706Z,16.90
2023-04-06T22:16:48.444Z,15.57
2023-04-06T22:19:15.485Z,14.70
2023-04-06T22:21:41.962Z,16.35
2023-04-06T22:24:08.620Z,16.70
2023-04-06T22:26:35.429Z,17.33
2023-04-06T22:29:01.852Z,16.88
2023-04-06T22:31:28.608Z,15.77
2023-04-06T22:33:55.560Z,15.38
2023-04-06T22:36:22.006Z,14.30
2023-04-06T22:38:51.065Z,16.08
2023-04-06T22:41:17.481Z,17.25
2023-04-06T22:43:43.853Z,15.82
2023-04-06T22:46:10.601Z,16.00
2023-04-06T22:48:36.960Z,18.10
2023-04-06T22:51:03.376Z,14.80
2023-04-06T22:53:30.170Z,16.45
2023-04-06T22:55:56.643Z,17.90
2023-04-06T22:58:23.033Z,18.60
2023-04-06T23:00:49.384Z,15.68
2023-04-06T23:03:15.891Z,16.10
2023-04-06T23:05:42.624Z,17.27
2023-04-06T23:08:08.966Z,17.25
2023-04-06T23:10:37.218Z,17.38
2023-04-06T23:13:03.560Z,14.65
2023-04-06T23:15:30.031Z,15.90
2023-04-06T23:17:56.540Z,17.75
2023-04-06T23:20:23.399Z,15.23
2023-04-06T23:22:49.727Z,15.77
2023-04-06T23:25:16.543Z,19.30
2023-04-06T23:27:43.201Z,18.08
2023-04-06T23:30:10.060Z,18.77
2023-04-06T23:32:37.116Z,20.45
2023-04-06T23:35:03.800Z,16.75
2023-04-06T23:37:31.002Z,17.67
2023-04-06T23:39:57.513Z,19.52
2023-04-06T23:42:28.800Z,20.75
2023-04-06T23:44:55.479Z,17.80
2023-04-06T23:47:21.893Z,16.05
2023-04-06T23:49:48.354Z,19.00
2023-04-06T23:52:14.688Z,21.15
2023-04-06T23:54:41.057Z,23.33
2023-04-06T23:57:07.601Z,22.15
2023-04-06T23:59:34.003Z,19.00
